createdAt,value
2023-09-06T00:02:21.769Z,28.4
2023-09-06T00:08:15.924Z,28.4
2023-09-06T00:14:08.321Z,28.4
2023-09-06T00:20:00.554Z,28.3
2023-09-06T00:25:53.546Z,28.3
2023-09-06T00:31:46.045Z,28.3
2023-09-06T00:37:38.065Z,28.3
2023-09-06T00:43:31.195Z,28.3
2023-09-06T00:49:23.322Z,28.3
2023-09-06T00:55:14.367Z,28.3
2023-09-06T01:01:07.010Z,28.3
2023-09-06T01:07:00.462Z,28.3
2023-09-06T01:12:50.611Z,28.3
2023-09-06T01:18:44.533Z,28.3
2023-09-06T01:24:36.373Z,28.3
2023-09-06T01:30:28.642Z,28.3
2023-09-06T01:36:22.427Z,28.3
2023-09-06T01:42:14.353Z,28.3
2023-09-06T01:48:06.359Z,28.3
2023-09-06T01:53:58.488Z,28.3
2023-09-06T01:59:50.943Z,28.3
2023-09-06T02:05:12.775Z,28.3
2023-09-06T02:11:05.030Z,28.3
2023-09-06T02:16:56.796Z,28.3
2023-09-06T02:22:34.125Z,28.3
2023-09-06T02:28:26.102Z,28.3
2023-09-06T02:34:19.095Z,28.3
2023-09-06T02:40:10.204Z,28.3
2023-09-06T02:46:02.793Z,28.3
2023-09-06T02:51:55.640Z,28.3
2023-09-06T02:57:47.630Z,28.4
2023-09-06T03:03:40.957Z,28.4
2023-09-06T03:09:33.165Z,28.4
2023-09-06T03:15:25.789Z,28.4
2023-09-06T03:21:18.541Z,28.4
2023-09-06T03:27:10.422Z,28.4
2023-09-06T03:33:03.005Z,28.3
2023-09-06T03:38:55.778Z,28.3
2023-09-06T03:44:48.536Z,28.2
2023-09-06T03:50:42.021Z,28.1
2023-09-06T03:56:19.520Z,28.1
2023-09-06T04:02:12.393Z,28
2023-09-06T04:08:05.322Z,28
2023-09-06T04:14:00.744Z,27.9
2023-09-06T04:19:53.637Z,27.9
2023-09-06T04:25:44.106Z,27.9
2023-09-06T04:31:37.949Z,27.9
2023-09-06T04:37:29.655Z,27.9
2023-09-06T04:43:21.057Z,27.9
2023-09-06T04:49:18.287Z,27.9
2023-09-06T04:54:55.162Z,27.9
2023-09-06T05:00:47.306Z,27.9
2023-09-06T05:06:40.779Z,27.9
2023-09-06T05:12:32.860Z,27.9
2023-09-06T05:18:25.187Z,27.9
2023-09-06T05:24:17.563Z,27.9
2023-09-06T05:29:53.610Z,27.9
2023-09-06T05:35:29.771Z,27.9
2023-09-06T05:41:08.323Z,28
2023-09-06T05:47:19.285Z,28.1
2023-09-06T05:53:14.135Z,28.1
2023-09-06T05:59:08.381Z,28.1
2023-09-06T06:05:01.545Z,28.1
2023-09-06T06:10:52.227Z,28.1
2023-09-06T06:16:56.312Z,28.1
2023-09-06T06:22:56.508Z,28.1
2023-09-06T06:28:48.860Z,28
2023-09-06T06:34:44.858Z,28
2023-09-06T06:40:37.182Z,28
2023-09-06T06:46:28.709Z,27.9
2023-09-06T06:52:22.422Z,32.8
2023-09-06T06:58:18.139Z,32.5
2023-09-06T07:04:10.085Z,31.9
2023-09-06T07:10:03.099Z,31.4
2023-09-06T07:15:55.498Z,33.6
2023-09-06T07:21:52.080Z,37.5
2023-09-06T07:27:43.739Z,39.6
2023-09-06T07:33:36.248Z,39.9
2023-09-06T07:39:29.857Z,40
2023-09-06T07:45:22.429Z,40.3
2023-09-06T07:51:17.138Z,40.6
2023-09-06T07:57:08.636Z,41.5
2023-09-06T08:03:14.977Z,41.8
2023-09-06T08:09:09.431Z,42.3
2023-09-06T08:15:01.723Z,43.1
2023-09-06T08:20:42.078Z,44.8
2023-09-06T08:26:48.287Z,46.5
2023-09-06T08:32:42.892Z,47.9
2023-09-06T08:38:35.962Z,49
2023-09-06T08:44:28.304Z,49.9
2023-09-06T08:50:05.749Z,50.7
2023-09-06T08:55:44.978Z,51.6
2023-09-06T09:01:39.431Z,50.9
2023-09-06T09:07:48.353Z,42.2
2023-09-06T09:13:41.510Z,41.6
2023-09-06T09:19:52.415Z,42.3
2023-09-06T09:25:45.579Z,42.8
2023-09-06T09:31:39.811Z,43.4
2023-09-06T09:37:32.521Z,44
2023-09-06T09:43:38.104Z,44.4
2023-09-06T09:49:48.710Z,44.6
2023-09-06T09:55:51.668Z,44.8
2023-09-06T10:01:27.672Z,45
2023-09-06T10:07:43.098Z,45.1
2023-09-06T10:13:40.153Z,44.7
2023-09-06T10:19:44.741Z,44.4
2023-09-06T10:25:44.348Z,44.1
2023-09-06T10:31:57.035Z,43.9
2023-09-06T10:37:48.540Z,43.7
2023-09-06T10:43:41.058Z,43.5
2023-09-06T10:49:36.404Z,43.3
2023-09-06T10:55:14.679Z,43.2
2023-09-06T11:00:51.958Z,43.2
2023-09-06T11:06:59.647Z,43.1
2023-09-06T11:13:10.121Z,42.9
2023-09-06T11:19:03.621Z,42.5
2023-09-06T11:24:56.176Z,42.2
2023-09-06T11:30:33.282Z,41.8
2023-09-06T11:36:26.578Z,41.5
2023-09-06T11:42:18.153Z,41.5
2023-09-06T11:48:10.634Z,42.2
2023-09-06T11:54:18.976Z,42.9
2023-09-06T12:00:12.028Z,42.9
2023-09-06T12:06:20.357Z,42.4
2023-09-06T12:12:14.241Z,42
2023-09-06T12:17:54.282Z,41.5
2023-09-06T12:23:31.149Z,41.2
2023-09-06T12:29:08.135Z,40.9
2023-09-06T12:35:13.471Z,40.9
2023-09-06T12:41:06.184Z,40.8
2023-09-06T12:47:01.624Z,40.6
2023-09-06T12:52:53.626Z,40.4
2023-09-06T12:58:49.224Z,40.5
2023-09-06T13:04:42.719Z,40.4
2023-09-06T13:10:35.223Z,40.1
2023-09-06T13:16:15.084Z,39.8
2023-09-06T13:22:08.979Z,39.6
2023-09-06T13:28:01.049Z,39.3
2023-09-06T13:33:54.311Z,38.9
2023-09-06T13:39:46.988Z,38.3
2023-09-06T13:45:42.178Z,36.8
2023-09-06T13:51:34.625Z,35.5
2023-09-06T13:57:27.256Z,34.4
2023-09-06T14:03:05.050Z,33.6
2023-09-06T14:08:57.475Z,32.9
2023-09-06T14:14:49.909Z,32.3
2023-09-06T14:20:26.797Z,31.8
2023-09-06T14:26:19.132Z,31.4
2023-09-06T14:32:13.117Z,31.1
2023-09-06T14:38:05.258Z,30.8
2023-09-06T14:43:41.884Z,30.5
2023-09-06T14:49:35.729Z,30.3
2023-09-06T14:55:26.706Z,30
2023-09-06T15:01:09.632Z,30.1
2023-09-06T15:07:25.307Z,29.9
2023-09-06T15:13:17.076Z,29.8
2023-09-06T15:18:53.341Z,29.8
2023-09-06T15:24:57.780Z,29.6
2023-09-06T15:30:49.139Z,29.6
2023-09-06T15:36:40.773Z,29.5
2023-09-06T15:42:32.295Z,29.4
2023-09-06T15:48:23.993Z,29.4
2023-09-06T15:54:16.533Z,29.3
2023-09-06T16:00:16.448Z,29.3
2023-09-06T16:06:20.021Z,29.2
2023-09-06T16:12:12.862Z,29.2
2023-09-06T16:18:08.734Z,29.3
2023-09-06T16:24:02.630Z,29.3
2023-09-06T16:29:54.621Z,29.3
2023-09-06T16:35:50.534Z,29.2
2023-09-06T16:41:41.867Z,29.1
2023-09-06T16:47:33.278Z,29.1
2023-09-06T16:53:28.174Z,29
2023-09-06T16:59:20.314Z,28.9
2023-09-06T17:05:13.065Z,28.9
2023-09-06T17:11:05.285Z,28.9
2023-09-06T17:16:56.765Z,28.8
2023-09-06T17:22:50.247Z,28.8
2023-09-06T17:28:52.417Z,28.8
2023-09-06T17:34:44.077Z,28.8
2023-09-06T17:40:19.335Z,28.7
2023-09-06T17:46:11.629Z,28.7
2023-09-06T17:52:05.895Z,28.6
2023-09-06T17:57:56.918Z,28.6
2023-09-06T18:03:53.984Z,28.6
2023-09-06T18:09:48.122Z,28.6
2023-09-06T18:15:39.669Z,28.6
2023-09-06T18:21:32.347Z,28.6
2023-09-06T18:27:39.616Z,28.4
2023-09-06T18:33:17.700Z,28.5
2023-09-06T18:38:53.883Z,28.4
2023-09-06T18:44:45.696Z,28.4
2023-09-06T18:50:23.891Z,28.4
2023-09-06T18:56:16.167Z,28.4
2023-09-06T19:02:20.875Z,28.4
2023-09-06T19:08:13.870Z,28.4
2023-09-06T19:14:06.363Z,28.4
2023-09-06T19:20:00.495Z,28.4
2023-09-06T19:25:52.207Z,28.4
2023-09-06T19:31:44.911Z,28.3
2023-09-06T19:37:40.760Z,28.3
2023-09-06T19:43:32.565Z,28.3
2023-09-06T19:49:27.496Z,28.3
2023-09-06T19:55:19.054Z,28.3
2023-09-06T20:01:10.080Z,28.2
2023-09-06T20:07:05.772Z,28.1
2023-09-06T20:12:42.327Z,28
2023-09-06T20:18:20.693Z,28
2023-09-06T20:24:12.450Z,27.9
2023-09-06T20:30:03.940Z,27.9
2023-09-06T20:35:55.945Z,28
2023-09-06T20:41:48.562Z,27.9
2023-09-06T20:47:40.351Z,27.9
2023-09-06T20:53:32.568Z,27.9
2023-09-06T20:59:24.346Z,27.9
2023-09-06T21:22:10.658Z,27.8
2023-09-06T21:28:01.739Z,27.8
2023-09-06T21:34:04.858Z,27.8
2023-09-06T21:39:56.228Z,27.7
2023-09-06T21:46:01.726Z,27.8
2023-09-06T21:51:55.345Z,27.7
2023-09-06T21:57:55.370Z,27.7
2023-09-06T22:03:54.881Z,27.7
2023-09-06T22:09:47.549Z,27.7
2023-09-06T22:15:39.257Z,27.7
2023-09-06T22:21:30.800Z,27.6
2023-09-06T22:27:23.205Z,27.6
2023-09-06T22:33:16.262Z,27.6
2023-09-06T22:39:07.491Z,27.6
2023-09-06T22:44:45.469Z,27.6
2023-09-06T22:50:51.801Z,27.6
2023-09-06T22:56:44.214Z,27.6
2023-09-06T23:02:37.670Z,27.6
2023-09-06T23:08:33.015Z,27.6
2023-09-06T23:14:09.248Z,27.6
2023-09-06T23:19:46.975Z,27.6
2023-09-06T23:25:39.580Z,27.5
2023-09-06T23:31:16.170Z,27.6
2023-09-06T23:37:09.517Z,27.6
2023-09-06T23:42:46.738Z,27.5
2023-09-06T23:48:23.643Z,27.5
2023-09-06T23:54:00.787Z,27.5
